This is the latest recevied weather packets stored in our database for station/object ED2YAA-3. If no packets are shown the sender has not sent any weather packets the latest 10 day(s).
| Time | Temp. | Humidity | Pressure | Rain* | Wind** | Luminosity | Snow |
|---|---|---|---|---|---|---|---|
| 1777262571 | 15° C | 79% | 999 hPa | 0 mm | - | - | - |
| 1777260912 | 15° C | 78% | 999.1 hPa | 0 mm | - | - | - |
| 1777258971 | 15° C | 78% | 999.2 hPa | 0 mm | - | - | - |
| 1777257311 | 15° C | 78% | 999.1 hPa | 0 mm | - | - | - |
| 1777255370 | 15° C | 78% | 999.2 hPa | 0 mm | - | - | - |
| 1777253711 | 15° C | 79% | 999.3 hPa | 0 mm | - | - | - |
| 1777251770 | 15° C | 78% | 999.4 hPa | 0 mm | - | - | - |
| 1777250109 | 15° C | 78% | 999.6 hPa | 0 mm | - | - | - |
| 1777248170 | 15.56° C | 78% | 999.9 hPa | 0 mm | - | - | - |
| 1777246511 | 15° C | 78% | 999.9 hPa | 0 mm | - | - | - |
| 1777244589 | 15.56° C | 78% | 999.9 hPa | 0 mm | - | - | - |
| 1777243096 | 15.56° C | 78% | 1000.1 hPa | 0 mm | - | - | - |
| 1777242930 | 15.56° C | 78% | 1000 hPa | 0 mm | - | - | - |
| 1777239495 | 15.56° C | 76% | 1000.3 hPa | 0 mm | - | - | - |
| 1777239331 | 15.56° C | 76% | 1000.4 hPa | 0 mm | - | - | - |
| 1777235897 | 15.56° C | 78% | 1000.2 hPa | 0 mm | - | - | - |
| 1777235730 | 15.56° C | 78% | 1000.2 hPa | 0 mm | - | - | - |
| 1777232296 | 15.56° C | 76% | 999.5 hPa | 0 mm | - | - | - |
| 1777232130 | 15.56° C | 76% | 999.4 hPa | 0 mm | - | - | - |
| 1777228696 | 16.67° C | 72% | 998.8 hPa | 0 mm | - | - | - |
| 1777228529 | 16.67° C | 72% | 998.8 hPa | 0 mm | - | - | - |
| 1777225094 | 18.33° C | 68% | 998.2 hPa | 0 mm | - | - | - |
| 1777224930 | 18.33° C | 68% | 998.3 hPa | 0 mm | - | - | - |
| 1777221496 | 20° C | 64% | 997.7 hPa | 0 mm | - | - | - |
| 1777221330 | 20° C | 64% | 997.8 hPa | 0 mm | - | - | - |
* Rain latest hour (hover to see other rain measurements)
** Current wind speed in m/s (hover to see current wind gust speed)